Terminal Aerodrome Forecast
Issued by NWS

Home | Current Version | Previous Version | Text Only | Print | Product List | Glossary On
Versions: 1 2 3 4 5 6 7 8 9 10 11 12 13 14 15
547
FTUS46 KMTR 271806 AAA
TAFSJC
TAF AMD
KSJC 271806Z 2718/2818 27004KT P6SM FEW035 SCT070
      TEMPO 2718/2721 VRB03KT 6SM FU BKN030
     FM272100 30011KT P6SM FEW070
     FM280300 30006KT P6SM FEW020 SCT150
     FM281100 VRB03KT P6SM FEW020 SCT150=

USA.gov is the U.S. government's official web portal to all federal, state and local government web resources and services.